sensor_id;sensor_type;location;lat;lon;timestamp;P1;durP1;ratioP1;P2;durP2;ratioP2
22677;SDS011;26259;50.214;18.620;2022-08-18T00:01:15;28.90;;;25.53;;
22677;SDS011;26259;50.214;18.620;2022-08-18T00:03:41;29.87;;;26.67;;
22677;SDS011;26259;50.214;18.620;2022-08-18T00:06:08;30.90;;;27.10;;
22677;SDS011;26259;50.214;18.620;2022-08-18T00:08:33;34.17;;;28.00;;
22677;SDS011;26259;50.214;18.620;2022-08-18T00:10:59;29.57;;;25.40;;
22677;SDS011;26259;50.214;18.620;2022-08-18T00:13:25;28.47;;;25.20;;
22677;SDS011;26259;50.214;18.620;2022-08-18T00:15:51;33.13;;;28.30;;
22677;SDS011;26259;50.214;18.620;2022-08-18T00:18:17;37.00;;;28.23;;
22677;SDS011;26259;50.214;18.620;2022-08-18T00:20:43;31.20;;;27.97;;
22677;SDS011;26259;50.214;18.620;2022-08-18T00:23:09;29.90;;;26.90;;
22677;SDS011;26259;50.214;18.620;2022-08-18T00:25:35;30.13;;;26.87;;
22677;SDS011;26259;50.214;18.620;2022-08-18T00:28:00;31.60;;;27.40;;
22677;SDS011;26259;50.214;18.620;2022-08-18T00:30:26;31.53;;;27.67;;
22677;SDS011;26259;50.214;18.620;2022-08-18T00:32:53;30.97;;;27.60;;
22677;SDS011;26259;50.214;18.620;2022-08-18T00:35:22;32.40;;;28.37;;
22677;SDS011;26259;50.214;18.620;2022-08-18T00:37:51;31.87;;;28.47;;
22677;SDS011;26259;50.214;18.620;2022-08-18T00:40:19;32.50;;;28.63;;
22677;SDS011;26259;50.214;18.620;2022-08-18T00:42:50;32.50;;;28.73;;
22677;SDS011;26259;50.214;18.620;2022-08-18T00:45:20;31.20;;;27.87;;
22677;SDS011;26259;50.214;18.620;2022-08-18T00:47:51;36.57;;;30.17;;
22677;SDS011;26259;50.214;18.620;2022-08-18T00:50:20;34.37;;;29.40;;
22677;SDS011;26259;50.214;18.620;2022-08-18T00:52:59;35.50;;;29.87;;
22677;SDS011;26259;50.214;18.620;2022-08-18T00:55:31;35.70;;;31.50;;
22677;SDS011;26259;50.214;18.620;2022-08-18T00:58:19;33.77;;;30.37;;
22677;SDS011;26259;50.214;18.620;2022-08-18T01:00:54;33.97;;;30.47;;
22677;SDS011;26259;50.214;18.620;2022-08-18T01:03:20;34.53;;;30.63;;
22677;SDS011;26259;50.214;18.620;2022-08-18T01:06:04;35.20;;;29.13;;
22677;SDS011;26259;50.214;18.620;2022-08-18T01:08:35;34.17;;;29.30;;
22677;SDS011;26259;50.214;18.620;2022-08-18T01:11:04;34.17;;;30.47;;
22677;SDS011;26259;50.214;18.620;2022-08-18T01:13:30;35.90;;;31.57;;
22677;SDS011;26259;50.214;18.620;2022-08-18T01:15:57;34.47;;;30.87;;
22677;SDS011;26259;50.214;18.620;2022-08-18T01:18:23;37.27;;;33.30;;
22677;SDS011;26259;50.214;18.620;2022-08-18T01:24:14;38.80;;;33.10;;
22677;SDS011;26259;50.214;18.620;2022-08-18T01:26:41;34.87;;;31.20;;
22677;SDS011;26259;50.214;18.620;2022-08-18T01:29:14;37.10;;;33.20;;
22677;SDS011;26259;50.214;18.620;2022-08-18T01:31:41;35.20;;;31.60;;
22677;SDS011;26259;50.214;18.620;2022-08-18T01:34:11;33.53;;;29.93;;
22677;SDS011;26259;50.214;18.620;2022-08-18T01:36:38;36.27;;;32.57;;
22677;SDS011;26259;50.214;18.620;2022-08-18T01:39:06;35.83;;;32.00;;
22677;SDS011;26259;50.214;18.620;2022-08-18T01:41:35;35.80;;;31.87;;
22677;SDS011;26259;50.214;18.620;2022-08-18T01:44:02;36.53;;;32.63;;
22677;SDS011;26259;50.214;18.620;2022-08-18T01:46:31;37.37;;;33.37;;
22677;SDS011;26259;50.214;18.620;2022-08-18T01:48:58;35.00;;;31.30;;
22677;SDS011;26259;50.214;18.620;2022-08-18T01:51:25;36.57;;;32.27;;
22677;SDS011;26259;50.214;18.620;2022-08-18T01:53:52;34.60;;;31.00;;
22677;SDS011;26259;50.214;18.620;2022-08-18T01:56:18;36.27;;;31.77;;
22677;SDS011;26259;50.214;18.620;2022-08-18T01:58:44;36.53;;;32.57;;
22677;SDS011;26259;50.214;18.620;2022-08-18T02:01:12;36.90;;;32.17;;
22677;SDS011;26259;50.214;18.620;2022-08-18T02:03:41;38.00;;;33.93;;
22677;SDS011;26259;50.214;18.620;2022-08-18T02:06:12;38.50;;;33.97;;
22677;SDS011;26259;50.214;18.620;2022-08-18T02:08:39;37.40;;;33.30;;
22677;SDS011;26259;50.214;18.620;2022-08-18T02:11:05;36.43;;;32.70;;
22677;SDS011;26259;50.214;18.620;2022-08-18T02:13:31;38.30;;;33.73;;
22677;SDS011;26259;50.214;18.620;2022-08-18T02:15:58;36.77;;;33.17;;
22677;SDS011;26259;50.214;18.620;2022-08-18T02:18:26;38.43;;;34.23;;
22677;SDS011;26259;50.214;18.620;2022-08-18T02:20:54;38.20;;;34.13;;
22677;SDS011;26259;50.214;18.620;2022-08-18T02:23:21;38.70;;;33.87;;
22677;SDS011;26259;50.214;18.620;2022-08-18T02:25:47;37.17;;;33.07;;
22677;SDS011;26259;50.214;18.620;2022-08-18T02:28:13;38.57;;;33.77;;
22677;SDS011;26259;50.214;18.620;2022-08-18T02:30:40;38.03;;;34.03;;
22677;SDS011;26259;50.214;18.620;2022-08-18T02:33:07;39.37;;;34.67;;
22677;SDS011;26259;50.214;18.620;2022-08-18T02:35:34;38.53;;;34.23;;
22677;SDS011;26259;50.214;18.620;2022-08-18T02:38:02;41.23;;;33.87;;
22677;SDS011;26259;50.214;18.620;2022-08-18T02:40:29;37.23;;;33.30;;
22677;SDS011;26259;50.214;18.620;2022-08-18T02:42:57;42.27;;;36.40;;
22677;SDS011;26259;50.214;18.620;2022-08-18T02:45:23;39.57;;;35.27;;
22677;SDS011;26259;50.214;18.620;2022-08-18T02:47:52;37.43;;;33.47;;
22677;SDS011;26259;50.214;18.620;2022-08-18T02:50:19;39.27;;;34.93;;
22677;SDS011;26259;50.214;18.620;2022-08-18T02:52:45;39.50;;;35.53;;
22677;SDS011;26259;50.214;18.620;2022-08-18T02:55:11;41.03;;;36.73;;
22677;SDS011;26259;50.214;18.620;2022-08-18T02:57:40;41.17;;;33.87;;
22677;SDS011;26259;50.214;18.620;2022-08-18T03:00:07;43.00;;;36.57;;
22677;SDS011;26259;50.214;18.620;2022-08-18T03:02:35;42.63;;;37.77;;
22677;SDS011;26259;50.214;18.620;2022-08-18T03:05:02;45.03;;;38.47;;
22677;SDS011;26259;50.214;18.620;2022-08-18T03:07:28;42.33;;;36.27;;
22677;SDS011;26259;50.214;18.620;2022-08-18T03:09:54;40.07;;;35.83;;
22677;SDS011;26259;50.214;18.620;2022-08-18T03:12:19;40.30;;;35.17;;
22677;SDS011;26259;50.214;18.620;2022-08-18T03:14:45;36.73;;;32.83;;
22677;SDS011;26259;50.214;18.620;2022-08-18T03:17:10;41.27;;;33.70;;
22677;SDS011;26259;50.214;18.620;2022-08-18T03:19:39;38.00;;;33.97;;
22677;SDS011;26259;50.214;18.620;2022-08-18T03:22:06;37.33;;;33.30;;
22677;SDS011;26259;50.214;18.620;2022-08-18T03:24:32;36.77;;;32.77;;
22677;SDS011;26259;50.214;18.620;2022-08-18T03:26:58;39.27;;;32.70;;
22677;SDS011;26259;50.214;18.620;2022-08-18T03:29:27;39.23;;;32.03;;
22677;SDS011;26259;50.214;18.620;2022-08-18T03:31:53;36.33;;;32.63;;
22677;SDS011;26259;50.214;18.620;2022-08-18T03:34:19;36.57;;;32.77;;
22677;SDS011;26259;50.214;18.620;2022-08-18T03:36:45;39.87;;;35.27;;
22677;SDS011;26259;50.214;18.620;2022-08-18T03:39:12;40.77;;;33.37;;
22677;SDS011;26259;50.214;18.620;2022-08-18T03:41:38;37.27;;;33.37;;
22677;SDS011;26259;50.214;18.620;2022-08-18T03:44:09;41.10;;;34.87;;
22677;SDS011;26259;50.214;18.620;2022-08-18T03:46:35;36.40;;;32.43;;
22677;SDS011;26259;50.214;18.620;2022-08-18T03:49:01;43.00;;;35.07;;
22677;SDS011;26259;50.214;18.620;2022-08-18T03:51:28;37.03;;;33.23;;
22677;SDS011;26259;50.214;18.620;2022-08-18T03:53:58;39.90;;;34.77;;
22677;SDS011;26259;50.214;18.620;2022-08-18T03:56:27;37.00;;;33.20;;
22677;SDS011;26259;50.214;18.620;2022-08-18T03:58:58;35.17;;;31.57;;
22677;SDS011;26259;50.214;18.620;2022-08-18T04:01:32;35.70;;;31.90;;
22677;SDS011;26259;50.214;18.620;2022-08-18T04:04:03;36.53;;;32.67;;
22677;SDS011;26259;50.214;18.620;2022-08-18T04:06:37;36.50;;;32.70;;
22677;SDS011;26259;50.214;18.620;2022-08-18T04:09:08;36.30;;;32.27;;
22677;SDS011;26259;50.214;18.620;2022-08-18T04:11:36;34.57;;;31.00;;
22677;SDS011;26259;50.214;18.620;2022-08-18T04:14:04;33.70;;;30.30;;
22677;SDS011;26259;50.214;18.620;2022-08-18T04:16:30;35.63;;;31.83;;
22677;SDS011;26259;50.214;18.620;2022-08-18T04:18:56;34.17;;;30.67;;
22677;SDS011;26259;50.214;18.620;2022-08-18T04:21:27;37.23;;;30.70;;
22677;SDS011;26259;50.214;18.620;2022-08-18T04:23:55;34.67;;;30.93;;
22677;SDS011;26259;50.214;18.620;2022-08-18T04:26:20;31.90;;;27.83;;
22677;SDS011;26259;50.214;18.620;2022-08-18T04:28:46;29.20;;;26.07;;
22677;SDS011;26259;50.214;18.620;2022-08-18T04:31:12;24.77;;;22.13;;
22677;SDS011;26259;50.214;18.620;2022-08-18T04:33:40;24.57;;;22.07;;
22677;SDS011;26259;50.214;18.620;2022-08-18T04:36:12;24.97;;;22.47;;
22677;SDS011;26259;50.214;18.620;2022-08-18T04:38:39;21.13;;;18.83;;
22677;SDS011;26259;50.214;18.620;2022-08-18T04:41:06;21.03;;;18.73;;
22677;SDS011;26259;50.214;18.620;2022-08-18T04:43:32;19.47;;;17.47;;
22677;SDS011;26259;50.214;18.620;2022-08-18T04:45:58;19.37;;;17.37;;
22677;SDS011;26259;50.214;18.620;2022-08-18T04:48:27;20.30;;;18.03;;
22677;SDS011;26259;50.214;18.620;2022-08-18T04:51:02;21.33;;;17.80;;
22677;SDS011;26259;50.214;18.620;2022-08-18T04:53:41;19.00;;;17.00;;
22677;SDS011;26259;50.214;18.620;2022-08-18T05:01:33;20.07;;;17.80;;
22677;SDS011;26259;50.214;18.620;2022-08-18T05:04:00;20.87;;;18.70;;
22677;SDS011;26259;50.214;18.620;2022-08-18T05:06:27;19.97;;;17.97;;
22677;SDS011;26259;50.214;18.620;2022-08-18T05:08:53;24.03;;;20.40;;
22677;SDS011;26259;50.214;18.620;2022-08-18T05:11:22;22.30;;;20.00;;
22677;SDS011;26259;50.214;18.620;2022-08-18T05:13:48;24.20;;;20.30;;
22677;SDS011;26259;50.214;18.620;2022-08-18T05:16:16;25.87;;;18.63;;
22677;SDS011;26259;50.214;18.620;2022-08-18T05:18:42;22.20;;;18.07;;
22677;SDS011;26259;50.214;18.620;2022-08-18T05:21:09;19.90;;;17.73;;
22677;SDS011;26259;50.214;18.620;2022-08-18T05:23:40;22.40;;;19.70;;
22677;SDS011;26259;50.214;18.620;2022-08-18T05:26:06;22.57;;;20.30;;
22677;SDS011;26259;50.214;18.620;2022-08-18T05:28:33;21.50;;;19.20;;
22677;SDS011;26259;50.214;18.620;2022-08-18T05:31:12;25.07;;;20.00;;
22677;SDS011;26259;50.214;18.620;2022-08-18T05:33:44;26.07;;;21.33;;
22677;SDS011;26259;50.214;18.620;2022-08-18T05:41:53;25.23;;;22.50;;
22677;SDS011;26259;50.214;18.620;2022-08-18T05:44:35;30.67;;;25.77;;
22677;SDS011;26259;50.214;18.620;2022-08-18T05:49:35;30.00;;;24.57;;
22677;SDS011;26259;50.214;18.620;2022-08-18T05:52:03;30.90;;;25.03;;
22677;SDS011;26259;50.214;18.620;2022-08-18T05:54:37;28.57;;;25.47;;
22677;SDS011;26259;50.214;18.620;2022-08-18T05:57:26;35.83;;;26.13;;
22677;SDS011;26259;50.214;18.620;2022-08-18T05:59:56;38.73;;;28.97;;
22677;SDS011;26259;50.214;18.620;2022-08-18T06:04:55;42.97;;;29.03;;
22677;SDS011;26259;50.214;18.620;2022-08-18T06:07:27;36.00;;;28.70;;
22677;SDS011;26259;50.214;18.620;2022-08-18T06:09:58;36.13;;;27.43;;
22677;SDS011;26259;50.214;18.620;2022-08-18T06:12:31;36.37;;;28.17;;
22677;SDS011;26259;50.214;18.620;2022-08-18T06:15:17;36.03;;;28.47;;
22677;SDS011;26259;50.214;18.620;2022-08-18T06:23:41;33.10;;;24.63;;
22677;SDS011;26259;50.214;18.620;2022-08-18T06:26:16;31.83;;;24.30;;
22677;SDS011;26259;50.214;18.620;2022-08-18T06:34:18;25.93;;;23.03;;
22677;SDS011;26259;50.214;18.620;2022-08-18T06:39:23;24.77;;;22.00;;
22677;SDS011;26259;50.214;18.620;2022-08-18T06:41:51;23.60;;;20.83;;
22677;SDS011;26259;50.214;18.620;2022-08-18T06:52:33;28.23;;;21.50;;
22677;SDS011;26259;50.214;18.620;2022-08-18T06:55:03;24.97;;;20.70;;
22677;SDS011;26259;50.214;18.620;2022-08-18T06:57:37;30.03;;;20.30;;
22677;SDS011;26259;50.214;18.620;2022-08-18T07:05:31;29.05;;;19.30;;
22677;SDS011;26259;50.214;18.620;2022-08-18T07:11:10;22.20;;;17.58;;
22677;SDS011;26259;50.214;18.620;2022-08-18T07:13:42;29.13;;;17.27;;
22677;SDS011;26259;50.214;18.620;2022-08-18T07:16:29;23.58;;;17.77;;
22677;SDS011;26259;50.214;18.620;2022-08-18T07:19:06;24.60;;;17.83;;
22677;SDS011;26259;50.214;18.620;2022-08-18T07:21:38;22.63;;;17.60;;
22677;SDS011;26259;50.214;18.620;2022-08-18T07:24:27;19.63;;;16.80;;
22677;SDS011;26259;50.214;18.620;2022-08-18T07:27:03;20.45;;;17.00;;
22677;SDS011;26259;50.214;18.620;2022-08-18T07:29:35;23.75;;;16.20;;
22677;SDS011;26259;50.214;18.620;2022-08-18T07:32:14;18.95;;;15.70;;
22677;SDS011;26259;50.214;18.620;2022-08-18T07:34:45;26.58;;;17.02;;
22677;SDS011;26259;50.214;18.620;2022-08-18T07:37:23;27.05;;;15.75;;
22677;SDS011;26259;50.214;18.620;2022-08-18T07:39:55;21.45;;;16.13;;
22677;SDS011;26259;50.214;18.620;2022-08-18T07:42:50;25.83;;;16.42;;
22677;SDS011;26259;50.214;18.620;2022-08-18T07:45:21;22.45;;;15.77;;
22677;SDS011;26259;50.214;18.620;2022-08-18T07:48:04;23.00;;;15.75;;
22677;SDS011;26259;50.214;18.620;2022-08-18T07:50:44;15.82;;;14.15;;
22677;SDS011;26259;50.214;18.620;2022-08-18T07:56:00;16.60;;;12.57;;
22677;SDS011;26259;50.214;18.620;2022-08-18T07:58:31;20.20;;;14.20;;
22677;SDS011;26259;50.214;18.620;2022-08-18T08:01:53;17.05;;;13.70;;
22677;SDS011;26259;50.214;18.620;2022-08-18T08:07:13;15.35;;;12.32;;
22677;SDS011;26259;50.214;18.620;2022-08-18T08:09:45;16.67;;;11.85;;
22677;SDS011;26259;50.214;18.620;2022-08-18T08:12:44;16.38;;;11.75;;
22677;SDS011;26259;50.214;18.620;2022-08-18T08:20:56;16.25;;;10.77;;
22677;SDS011;26259;50.214;18.620;2022-08-18T08:26:26;17.73;;;10.65;;
22677;SDS011;26259;50.214;18.620;2022-08-18T08:29:37;14.23;;;10.05;;
22677;SDS011;26259;50.214;18.620;2022-08-18T08:32:16;15.02;;;10.10;;
22677;SDS011;26259;50.214;18.620;2022-08-18T08:34:51;19.95;;;10.75;;
22677;SDS011;26259;50.214;18.620;2022-08-18T08:37:39;13.15;;;10.60;;
22677;SDS011;26259;50.214;18.620;2022-08-18T08:43:00;20.25;;;10.90;;
22677;SDS011;26259;50.214;18.620;2022-08-18T08:50:53;17.65;;;10.98;;
22677;SDS011;26259;50.214;18.620;2022-08-18T08:53:24;15.32;;;10.75;;
22677;SDS011;26259;50.214;18.620;2022-08-18T08:56:05;15.18;;;11.18;;
22677;SDS011;26259;50.214;18.620;2022-08-18T08:58:42;10.95;;;9.85;;
22677;SDS011;26259;50.214;18.620;2022-08-18T09:01:19;11.30;;;10.00;;
22677;SDS011;26259;50.214;18.620;2022-08-18T09:03:55;15.05;;;11.27;;
22677;SDS011;26259;50.214;18.620;2022-08-18T09:06:34;16.38;;;11.18;;
22677;SDS011;26259;50.214;18.620;2022-08-18T09:15:34;14.57;;;10.32;;
22677;SDS011;26259;50.214;18.620;2022-08-18T09:18:29;14.18;;;10.00;;
22677;SDS011;26259;50.214;18.620;2022-08-18T09:21:15;17.70;;;9.70;;
22677;SDS011;26259;50.214;18.620;2022-08-18T09:23:44;10.55;;;8.98;;
22677;SDS011;26259;50.214;18.620;2022-08-18T09:29:09;16.48;;;9.60;;
22677;SDS011;26259;50.214;18.620;2022-08-18T09:31:43;15.43;;;8.82;;
22677;SDS011;26259;50.214;18.620;2022-08-18T09:34:18;17.63;;;9.32;;
22677;SDS011;26259;50.214;18.620;2022-08-18T09:39:50;14.32;;;9.80;;
22677;SDS011;26259;50.214;18.620;2022-08-18T09:45:08;15.73;;;9.38;;
22677;SDS011;26259;50.214;18.620;2022-08-18T09:56:01;13.90;;;9.98;;
22677;SDS011;26259;50.214;18.620;2022-08-18T10:01:18;20.33;;;9.60;;
22677;SDS011;26259;50.214;18.620;2022-08-18T10:06:41;19.92;;;9.93;;
22677;SDS011;26259;50.214;18.620;2022-08-18T10:12:00;13.15;;;9.93;;
22677;SDS011;26259;50.214;18.620;2022-08-18T10:14:33;12.98;;;9.63;;
22677;SDS011;26259;50.214;18.620;2022-08-18T10:22:31;19.48;;;9.02;;
22677;SDS011;26259;50.214;18.620;2022-08-18T10:24:58;10.57;;;8.93;;
22677;SDS011;26259;50.214;18.620;2022-08-18T10:27:35;15.10;;;9.00;;
22677;SDS011;26259;50.214;18.620;2022-08-18T10:33:10;21.08;;;9.75;;
22677;SDS011;26259;50.214;18.620;2022-08-18T10:38:04;14.57;;;10.07;;
22677;SDS011;26259;50.214;18.620;2022-08-18T10:40:43;15.82;;;10.15;;
22677;SDS011;26259;50.214;18.620;2022-08-18T10:43:26;14.02;;;9.05;;
22677;SDS011;26259;50.214;18.620;2022-08-18T10:46:01;15.95;;;9.00;;
22677;SDS011;26259;50.214;18.620;2022-08-18T10:48:28;13.95;;;8.82;;
22677;SDS011;26259;50.214;18.620;2022-08-18T11:04:23;9.50;;;8.20;;
22677;SDS011;26259;50.214;18.620;2022-08-18T11:07:09;10.73;;;7.88;;
22677;SDS011;26259;50.214;18.620;2022-08-18T11:09:39;17.92;;;8.50;;
22677;SDS011;26259;50.214;18.620;2022-08-18T11:12:07;13.77;;;8.57;;
22677;SDS011;26259;50.214;18.620;2022-08-18T11:14:38;13.80;;;8.32;;
22677;SDS011;26259;50.214;18.620;2022-08-18T11:20:31;13.40;;;7.80;;
22677;SDS011;26259;50.214;18.620;2022-08-18T11:22:58;13.05;;;8.50;;
22677;SDS011;26259;50.214;18.620;2022-08-18T11:25:28;11.65;;;8.10;;
22677;SDS011;26259;50.214;18.620;2022-08-18T11:27:58;14.35;;;8.05;;
22677;SDS011;26259;50.214;18.620;2022-08-18T11:30:27;21.38;;;8.10;;
22677;SDS011;26259;50.214;18.620;2022-08-18T11:32:57;16.58;;;8.45;;
22677;SDS011;26259;50.214;18.620;2022-08-18T11:35:43;12.75;;;7.88;;
22677;SDS011;26259;50.214;18.620;2022-08-18T11:38:13;14.50;;;8.43;;
22677;SDS011;26259;50.214;18.620;2022-08-18T11:43:23;12.40;;;8.13;;
22677;SDS011;26259;50.214;18.620;2022-08-18T11:45:56;9.52;;;6.97;;
22677;SDS011;26259;50.214;18.620;2022-08-18T11:51:00;8.05;;;7.25;;
22677;SDS011;26259;50.214;18.620;2022-08-18T11:58:42;10.52;;;8.20;;
22677;SDS011;26259;50.214;18.620;2022-08-18T12:03:56;10.30;;;7.72;;
22677;SDS011;26259;50.214;18.620;2022-08-18T12:06:26;9.43;;;7.22;;
22677;SDS011;26259;50.214;18.620;2022-08-18T12:11:48;13.93;;;7.13;;
22677;SDS011;26259;50.214;18.620;2022-08-18T12:14:16;9.50;;;7.55;;
22677;SDS011;26259;50.214;18.620;2022-08-18T12:16:45;10.20;;;7.43;;
22677;SDS011;26259;50.214;18.620;2022-08-18T12:19:11;10.93;;;7.35;;
22677;SDS011;26259;50.214;18.620;2022-08-18T12:21:41;11.63;;;7.43;;
22677;SDS011;26259;50.214;18.620;2022-08-18T12:24:12;12.38;;;6.55;;
22677;SDS011;26259;50.214;18.620;2022-08-18T12:26:45;8.25;;;6.55;;
22677;SDS011;26259;50.214;18.620;2022-08-18T12:29:11;10.60;;;6.72;;
22677;SDS011;26259;50.214;18.620;2022-08-18T12:31:37;10.60;;;7.80;;
22677;SDS011;26259;50.214;18.620;2022-08-18T12:34:03;8.40;;;7.00;;
22677;SDS011;26259;50.214;18.620;2022-08-18T12:36:30;10.40;;;6.80;;
22677;SDS011;26259;50.214;18.620;2022-08-18T12:38:56;8.73;;;6.55;;
22677;SDS011;26259;50.214;18.620;2022-08-18T12:41:22;9.27;;;6.32;;
22677;SDS011;26259;50.214;18.620;2022-08-18T12:43:48;9.50;;;6.78;;
22677;SDS011;26259;50.214;18.620;2022-08-18T12:46:14;13.70;;;6.40;;
22677;SDS011;26259;50.214;18.620;2022-08-18T12:48:39;9.25;;;6.65;;
22677;SDS011;26259;50.214;18.620;2022-08-18T12:51:05;13.35;;;6.93;;
22677;SDS011;26259;50.214;18.620;2022-08-18T12:53:31;9.35;;;6.78;;
22677;SDS011;26259;50.214;18.620;2022-08-18T12:55:57;20.05;;;6.45;;
22677;SDS011;26259;50.214;18.620;2022-08-18T12:58:24;9.88;;;6.72;;
22677;SDS011;26259;50.214;18.620;2022-08-18T13:00:49;8.85;;;6.43;;
22677;SDS011;26259;50.214;18.620;2022-08-18T13:03:15;12.63;;;6.47;;
22677;SDS011;26259;50.214;18.620;2022-08-18T13:05:43;9.18;;;6.70;;
22677;SDS011;26259;50.214;18.620;2022-08-18T13:08:12;6.20;;;5.55;;
22677;SDS011;26259;50.214;18.620;2022-08-18T13:10:42;7.32;;;5.40;;
22677;SDS011;26259;50.214;18.620;2022-08-18T13:13:08;11.52;;;5.20;;
22677;SDS011;26259;50.214;18.620;2022-08-18T13:15:34;8.68;;;6.05;;
22677;SDS011;26259;50.214;18.620;2022-08-18T13:18:00;7.53;;;5.60;;
22677;SDS011;26259;50.214;18.620;2022-08-18T13:20:26;9.43;;;6.18;;
22677;SDS011;26259;50.214;18.620;2022-08-18T13:22:53;12.43;;;6.28;;
22677;SDS011;26259;50.214;18.620;2022-08-18T13:25:19;10.05;;;6.38;;
22677;SDS011;26259;50.214;18.620;2022-08-18T13:27:45;11.32;;;6.40;;
22677;SDS011;26259;50.214;18.620;2022-08-18T13:30:13;10.85;;;7.05;;
22677;SDS011;26259;50.214;18.620;2022-08-18T13:32:40;11.77;;;6.75;;
22677;SDS011;26259;50.214;18.620;2022-08-18T13:35:07;7.95;;;5.50;;
22677;SDS011;26259;50.214;18.620;2022-08-18T13:37:34;11.13;;;5.78;;
22677;SDS011;26259;50.214;18.620;2022-08-18T13:40:00;11.32;;;5.72;;
22677;SDS011;26259;50.214;18.620;2022-08-18T13:42:25;9.68;;;5.50;;
22677;SDS011;26259;50.214;18.620;2022-08-18T13:44:53;12.95;;;6.28;;
22677;SDS011;26259;50.214;18.620;2022-08-18T13:47:23;12.32;;;5.45;;
22677;SDS011;26259;50.214;18.620;2022-08-18T13:49:53;11.10;;;6.00;;
22677;SDS011;26259;50.214;18.620;2022-08-18T13:52:19;9.10;;;6.35;;
22677;SDS011;26259;50.214;18.620;2022-08-18T13:54:44;13.25;;;6.18;;
22677;SDS011;26259;50.214;18.620;2022-08-18T13:57:10;9.18;;;6.35;;
22677;SDS011;26259;50.214;18.620;2022-08-18T13:59:36;10.98;;;5.68;;
22677;SDS011;26259;50.214;18.620;2022-08-18T14:02:03;11.30;;;6.07;;
22677;SDS011;26259;50.214;18.620;2022-08-18T14:04:32;8.95;;;6.07;;
22677;SDS011;26259;50.214;18.620;2022-08-18T14:07:00;10.68;;;5.53;;
22677;SDS011;26259;50.214;18.620;2022-08-18T14:09:26;8.85;;;5.85;;
22677;SDS011;26259;50.214;18.620;2022-08-18T14:11:53;6.43;;;5.68;;
22677;SDS011;26259;50.214;18.620;2022-08-18T14:14:19;17.65;;;6.10;;
22677;SDS011;26259;50.214;18.620;2022-08-18T14:16:45;9.18;;;6.35;;
22677;SDS011;26259;50.214;18.620;2022-08-18T14:19:11;9.63;;;5.57;;
22677;SDS011;26259;50.214;18.620;2022-08-18T14:21:55;6.40;;;5.80;;
22677;SDS011;26259;50.214;18.620;2022-08-18T14:24:40;12.90;;;5.28;;
22677;SDS011;26259;50.214;18.620;2022-08-18T14:27:36;7.95;;;5.43;;
22677;SDS011;26259;50.214;18.620;2022-08-18T14:30:09;10.00;;;6.32;;
22677;SDS011;26259;50.214;18.620;2022-08-18T14:32:36;6.70;;;5.70;;
22677;SDS011;26259;50.214;18.620;2022-08-18T14:35:03;9.85;;;6.45;;
22677;SDS011;26259;50.214;18.620;2022-08-18T14:37:31;10.55;;;6.20;;
22677;SDS011;26259;50.214;18.620;2022-08-18T14:39:57;8.75;;;6.03;;
22677;SDS011;26259;50.214;18.620;2022-08-18T14:42:23;6.43;;;5.70;;
22677;SDS011;26259;50.214;18.620;2022-08-18T14:44:49;7.60;;;5.88;;
22677;SDS011;26259;50.214;18.620;2022-08-18T14:47:15;7.88;;;5.82;;
22677;SDS011;26259;50.214;18.620;2022-08-18T14:49:41;12.07;;;6.40;;
22677;SDS011;26259;50.214;18.620;2022-08-18T15:00:15;6.97;;;5.63;;
22677;SDS011;26259;50.214;18.620;2022-08-18T15:02:45;9.02;;;5.55;;
22677;SDS011;26259;50.214;18.620;2022-08-18T15:05:13;9.88;;;6.35;;
22677;SDS011;26259;50.214;18.620;2022-08-18T15:07:39;6.90;;;5.85;;
22677;SDS011;26259;50.214;18.620;2022-08-18T15:10:05;6.97;;;6.13;;
22677;SDS011;26259;50.214;18.620;2022-08-18T15:12:32;8.27;;;6.32;;
22677;SDS011;26259;50.214;18.620;2022-08-18T15:14:58;9.30;;;6.25;;
22677;SDS011;26259;50.214;18.620;2022-08-18T15:17:24;9.02;;;5.68;;
22677;SDS011;26259;50.214;18.620;2022-08-18T15:19:51;7.60;;;5.82;;
22677;SDS011;26259;50.214;18.620;2022-08-18T15:22:17;7.10;;;5.75;;
22677;SDS011;26259;50.214;18.620;2022-08-18T15:25:02;9.38;;;6.60;;
22677;SDS011;26259;50.214;18.620;2022-08-18T15:27:47;7.57;;;6.45;;
22677;SDS011;26259;50.214;18.620;2022-08-18T15:30:13;10.13;;;6.20;;
22677;SDS011;26259;50.214;18.620;2022-08-18T15:32:44;8.00;;;6.38;;
22677;SDS011;26259;50.214;18.620;2022-08-18T15:35:11;9.13;;;6.63;;
22677;SDS011;26259;50.214;18.620;2022-08-18T15:37:40;10.10;;;6.40;;
22677;SDS011;26259;50.214;18.620;2022-08-18T15:40:15;8.18;;;6.03;;
22677;SDS011;26259;50.214;18.620;2022-08-18T15:42:45;8.45;;;6.28;;
22677;SDS011;26259;50.214;18.620;2022-08-18T15:45:14;12.05;;;7.03;;
22677;SDS011;26259;50.214;18.620;2022-08-18T15:47:41;10.95;;;6.35;;
22677;SDS011;26259;50.214;18.620;2022-08-18T15:50:07;11.23;;;7.18;;
22677;SDS011;26259;50.214;18.620;2022-08-18T15:52:34;13.10;;;7.00;;
22677;SDS011;26259;50.214;18.620;2022-08-18T15:55:00;8.93;;;6.28;;
22677;SDS011;26259;50.214;18.620;2022-08-18T15:57:26;10.40;;;6.80;;
22677;SDS011;26259;50.214;18.620;2022-08-18T15:59:52;10.23;;;6.05;;
22677;SDS011;26259;50.214;18.620;2022-08-18T16:02:19;9.43;;;5.72;;
22677;SDS011;26259;50.214;18.620;2022-08-18T16:04:45;6.38;;;5.72;;
22677;SDS011;26259;50.214;18.620;2022-08-18T16:07:11;7.57;;;5.65;;
22677;SDS011;26259;50.214;18.620;2022-08-18T16:09:37;12.90;;;6.30;;
22677;SDS011;26259;50.214;18.620;2022-08-18T16:12:03;6.72;;;6.00;;
22677;SDS011;26259;50.214;18.620;2022-08-18T16:14:31;9.80;;;5.72;;
22677;SDS011;26259;50.214;18.620;2022-08-18T16:16:57;7.88;;;6.25;;
22677;SDS011;26259;50.214;18.620;2022-08-18T16:19:23;9.88;;;6.07;;
22677;SDS011;26259;50.214;18.620;2022-08-18T16:21:48;9.13;;;6.07;;
22677;SDS011;26259;50.214;18.620;2022-08-18T16:24:16;11.13;;;5.72;;
22677;SDS011;26259;50.214;18.620;2022-08-18T16:26:41;11.43;;;6.30;;
22677;SDS011;26259;50.214;18.620;2022-08-18T16:29:07;6.75;;;6.10;;
22677;SDS011;26259;50.214;18.620;2022-08-18T16:31:34;10.55;;;6.45;;
22677;SDS011;26259;50.214;18.620;2022-08-18T16:34:00;9.73;;;6.75;;
22677;SDS011;26259;50.214;18.620;2022-08-18T16:36:25;10.43;;;6.47;;
22677;SDS011;26259;50.214;18.620;2022-08-18T16:38:51;10.60;;;6.22;;
22677;SDS011;26259;50.214;18.620;2022-08-18T16:41:18;13.82;;;6.75;;
22677;SDS011;26259;50.214;18.620;2022-08-18T16:43:45;7.88;;;6.40;;
22677;SDS011;26259;50.214;18.620;2022-08-18T16:46:15;9.75;;;6.60;;
22677;SDS011;26259;50.214;18.620;2022-08-18T16:48:43;12.60;;;6.72;;
22677;SDS011;26259;50.214;18.620;2022-08-18T16:51:13;11.20;;;6.22;;
22677;SDS011;26259;50.214;18.620;2022-08-18T16:53:40;9.93;;;6.63;;
22677;SDS011;26259;50.214;18.620;2022-08-18T16:56:13;9.60;;;6.78;;
22677;SDS011;26259;50.214;18.620;2022-08-18T16:58:41;8.20;;;6.05;;
22677;SDS011;26259;50.214;18.620;2022-08-18T17:01:25;9.20;;;6.28;;
22677;SDS011;26259;50.214;18.620;2022-08-18T17:04:09;9.13;;;5.72;;
22677;SDS011;26259;50.214;18.620;2022-08-18T17:06:36;11.70;;;5.85;;
22677;SDS011;26259;50.214;18.620;2022-08-18T17:09:03;13.85;;;7.07;;